createdAt,value
2023-02-04T00:00:17.589Z,65.86
2023-02-04T00:02:44.470Z,65.97
2023-02-04T00:05:12.952Z,65.96
2023-02-04T00:07:41.369Z,66.22
2023-02-04T00:10:10.305Z,66.30
2023-02-04T00:12:37.169Z,66.38
2023-02-04T00:15:04.642Z,65.91
2023-02-04T00:17:31.428Z,66.22
2023-02-04T00:19:58.247Z,66.23
2023-02-04T00:22:26.458Z,66.03
2023-02-04T00:24:53.246Z,66.08
2023-02-04T00:27:20.024Z,66.36
2023-02-04T00:29:46.811Z,65.86
2023-02-04T00:32:13.676Z,66.24
2023-02-04T00:34:40.841Z,66.26
2023-02-04T00:37:07.630Z,65.85
2023-02-04T00:39:34.407Z,65.93
2023-02-04T00:42:01.175Z,65.98
2023-02-04T00:44:27.961Z,65.82
2023-02-04T00:46:54.767Z,66.04
2023-02-04T00:49:21.529Z,65.82
2023-02-04T00:51:48.337Z,66.22
2023-02-04T00:54:18.365Z,66.29
2023-02-04T00:56:45.345Z,66.19
2023-02-04T00:59:12.153Z,65.84
2023-02-04T01:01:39.120Z,66.01
2023-02-04T01:04:05.919Z,66.31
2023-02-04T01:06:32.726Z,66.04
2023-02-04T01:08:59.540Z,66.17
2023-02-04T01:11:26.447Z,65.86
2023-02-04T01:13:53.534Z,65.99
2023-02-04T01:16:20.452Z,66.04
2023-02-04T01:18:47.337Z,65.92
2023-02-04T01:21:14.204Z,65.96
2023-02-04T01:23:41.067Z,66.13
2023-02-04T01:26:07.823Z,66.05
2023-02-04T01:28:34.621Z,66.07
2023-02-04T01:31:01.531Z,65.93
2023-02-04T01:33:28.341Z,65.77
2023-02-04T01:35:55.116Z,65.73
2023-02-04T01:38:21.894Z,65.93
2023-02-04T01:40:48.812Z,65.66
2023-02-04T01:43:17.837Z,65.54
2023-02-04T01:45:46.415Z,65.33
2023-02-04T01:48:20.029Z,65.09
2023-02-04T01:50:52.370Z,64.96
2023-02-04T01:53:25.301Z,64.78
2023-02-04T01:55:52.499Z,64.65
2023-02-04T01:58:20.038Z,64.49
2023-02-04T02:00:46.953Z,64.59
2023-02-04T02:03:13.978Z,64.25
2023-02-04T02:05:51.319Z,64.21
2023-02-04T02:08:18.693Z,64.00
2023-02-04T02:10:48.241Z,63.50
2023-02-04T02:13:19.257Z,63.48
2023-02-04T02:15:47.398Z,63.36
2023-02-04T02:18:14.373Z,63.60
2023-02-04T02:20:43.842Z,63.40
2023-02-04T02:23:49.107Z,63.44
2023-02-04T02:26:18.035Z,63.60
2023-02-04T02:28:47.655Z,63.64
2023-02-04T02:31:15.885Z,63.65
2023-02-04T02:33:42.876Z,63.33
2023-02-04T02:36:10.064Z,63.24
2023-02-04T02:38:37.346Z,63.08
2023-02-04T02:41:05.392Z,63.21
2023-02-04T02:43:32.488Z,63.06
2023-02-04T02:46:00.970Z,62.99
2023-02-04T02:48:27.951Z,63.25
2023-02-04T02:50:54.849Z,63.28
2023-02-04T02:53:22.063Z,63.23
2023-02-04T02:55:48.946Z,62.90
2023-02-04T02:58:25.710Z,63.07
2023-02-04T03:00:53.060Z,62.91
2023-02-04T03:03:31.618Z,62.85
2023-02-04T03:06:06.325Z,63.40
2023-02-04T03:08:33.285Z,63.33
2023-02-04T03:11:00.074Z,63.28
2023-02-04T03:13:26.906Z,63.14
2023-02-04T03:15:54.596Z,62.90
2023-02-04T03:18:21.598Z,63.01
2023-02-04T03:20:51.213Z,62.72
2023-02-04T03:23:18.951Z,62.83
2023-02-04T03:25:45.816Z,62.79
2023-02-04T03:28:12.685Z,62.84
2023-02-04T03:30:39.489Z,62.81
2023-02-04T03:33:06.343Z,62.66
2023-02-04T03:35:33.152Z,62.93
2023-02-04T03:37:59.914Z,62.71
2023-02-04T03:40:26.723Z,62.87
2023-02-04T03:42:53.497Z,62.70
2023-02-04T03:45:20.326Z,62.99
2023-02-04T03:47:47.359Z,62.93
2023-02-04T03:50:14.450Z,63.10
2023-02-04T03:52:41.268Z,63.08
2023-02-04T03:55:08.292Z,63.06
2023-02-04T03:57:35.061Z,63.17
2023-02-04T04:00:02.031Z,63.06
2023-02-04T04:02:28.916Z,62.76
2023-02-04T04:04:55.667Z,62.98
2023-02-04T04:07:22.402Z,63.06
2023-02-04T04:09:49.189Z,63.11
2023-02-04T04:12:16.000Z,63.23
2023-02-04T04:14:42.804Z,63.13
2023-02-04T04:17:09.572Z,63.17
2023-02-04T04:19:36.330Z,63.13
2023-02-04T04:22:03.103Z,63.05
2023-02-04T04:24:29.874Z,63.26
2023-02-04T04:26:56.629Z,63.06
2023-02-04T04:29:23.421Z,62.86
2023-02-04T04:31:50.237Z,63.32
2023-02-04T04:34:17.027Z,63.27
2023-02-04T04:36:43.829Z,62.94
2023-02-04T04:39:10.730Z,63.05
2023-02-04T04:41:37.509Z,63.46
2023-02-04T04:44:04.257Z,63.03
2023-02-04T04:46:31.106Z,63.38
2023-02-04T04:48:57.882Z,62.97
2023-02-04T04:51:24.682Z,63.17
2023-02-04T04:53:51.723Z,63.34
2023-02-04T04:56:19.189Z,63.16
2023-02-04T04:58:45.953Z,63.45
2023-02-04T05:01:12.860Z,63.26
2023-02-04T05:03:39.818Z,63.30
2023-02-04T05:06:06.658Z,63.04
2023-02-04T05:08:34.780Z,63.00
2023-02-04T05:11:03.284Z,63.45
2023-02-04T05:13:30.405Z,63.51
2023-02-04T05:15:57.228Z,63.21
2023-02-04T05:18:24.243Z,63.43
2023-02-04T05:20:50.983Z,63.47
2023-02-04T05:23:17.752Z,63.19
2023-02-04T05:25:44.540Z,63.31
2023-02-04T05:28:11.352Z,63.17
2023-02-04T05:30:38.188Z,63.55
2023-02-04T05:33:04.986Z,63.22
2023-02-04T05:35:31.747Z,63.31
2023-02-04T05:37:58.522Z,63.23
2023-02-04T05:40:25.334Z,63.09
2023-02-04T05:42:52.128Z,63.29
2023-02-04T05:45:19.099Z,63.53
2023-02-04T05:47:45.972Z,63.31
2023-02-04T05:50:13.110Z,63.03
2023-02-04T05:52:40.417Z,63.09
2023-02-04T05:55:08.671Z,63.26
2023-02-04T05:57:35.415Z,62.89
2023-02-04T06:00:02.522Z,63.23
2023-02-04T06:02:29.271Z,62.98
2023-02-04T06:04:56.039Z,63.72
2023-02-04T06:07:22.814Z,63.79
2023-02-04T06:09:49.551Z,63.45
2023-02-04T06:12:16.353Z,63.36
2023-02-04T06:14:43.120Z,63.06
2023-02-04T06:17:09.885Z,63.53
2023-02-04T06:19:36.768Z,63.42
2023-02-04T06:22:03.554Z,63.31
2023-02-04T06:24:30.345Z,63.53
2023-02-04T06:26:57.110Z,63.43
2023-02-04T06:29:23.872Z,63.26
2023-02-04T06:31:50.908Z,63.46
2023-02-04T06:34:17.741Z,63.63
2023-02-04T06:36:44.541Z,63.53
2023-02-04T06:39:11.363Z,63.89
2023-02-04T06:41:38.124Z,63.81
2023-02-04T06:44:04.920Z,63.22
2023-02-04T06:46:31.801Z,63.77
2023-02-04T06:48:58.673Z,64.08
2023-02-04T06:51:25.985Z,63.69
2023-02-04T06:53:52.780Z,63.75
2023-02-04T06:56:19.588Z,63.88
2023-02-04T06:58:46.370Z,63.62
2023-02-04T07:01:13.411Z,63.95
2023-02-04T07:03:40.215Z,63.98
2023-02-04T07:06:06.983Z,63.69
2023-02-04T07:08:33.837Z,63.85
2023-02-04T07:11:00.645Z,63.97
2023-02-04T07:13:27.409Z,64.04
2023-02-04T07:15:54.287Z,64.14
2023-02-04T07:18:21.273Z,64.21
2023-02-04T07:20:48.109Z,64.69
2023-02-04T07:23:14.911Z,64.80
2023-02-04T07:25:41.708Z,64.14
2023-02-04T07:28:08.612Z,64.42
2023-02-04T07:30:35.804Z,64.52
2023-02-04T07:33:02.815Z,64.80
2023-02-04T07:35:29.572Z,65.37
2023-02-04T07:37:56.328Z,65.18
2023-02-04T07:40:23.123Z,65.09
2023-02-04T07:42:49.873Z,65.22
2023-02-04T07:45:16.637Z,64.67
2023-02-04T07:47:43.383Z,64.63
2023-02-04T07:50:10.270Z,64.87
2023-02-04T07:52:37.014Z,64.65
2023-02-04T07:55:03.797Z,64.25
2023-02-04T07:57:30.934Z,63.78
2023-02-04T07:59:57.767Z,63.99
2023-02-04T08:02:24.908Z,64.17
2023-02-04T08:04:51.737Z,64.35
2023-02-04T08:07:18.723Z,64.41
2023-02-04T08:09:46.890Z,64.62
2023-02-04T08:12:13.656Z,64.17
2023-02-04T08:14:40.396Z,64.24
2023-02-04T08:17:07.167Z,64.62
2023-02-04T08:19:33.925Z,64.63
2023-02-04T08:22:00.704Z,65.38
2023-02-04T08:24:27.501Z,65.38
2023-02-04T08:26:54.266Z,65.63
2023-02-04T08:29:21.045Z,65.59
2023-02-04T08:31:47.922Z,65.84
2023-02-04T08:34:14.782Z,65.53
2023-02-04T08:36:41.547Z,65.66
2023-02-04T08:39:08.357Z,65.30
2023-02-04T08:41:35.166Z,65.60
2023-02-04T08:44:01.996Z,65.46
2023-02-04T08:46:28.821Z,65.47
2023-02-04T08:48:55.848Z,65.57
2023-02-04T08:51:22.852Z,65.54
2023-02-04T08:53:49.635Z,65.73
2023-02-04T08:56:17.887Z,65.37
2023-02-04T08:58:45.078Z,65.11
2023-02-04T09:01:11.923Z,65.20
2023-02-04T09:03:39.318Z,65.43
2023-02-04T09:06:07.171Z,65.63
2023-02-04T09:08:34.112Z,65.67
2023-02-04T09:11:01.044Z,65.75
2023-02-04T09:13:27.822Z,65.81
2023-02-04T09:15:54.637Z,65.83
2023-02-04T09:18:22.404Z,65.92
2023-02-04T09:20:50.128Z,65.74
2023-02-04T09:23:17.198Z,65.49
2023-02-04T09:25:45.868Z,65.52
2023-02-04T09:28:17.095Z,66.01
2023-02-04T09:30:46.947Z,65.92
2023-02-04T09:33:16.870Z,65.89
2023-02-04T09:35:44.436Z,66.06
2023-02-04T09:38:11.312Z,66.43
2023-02-04T09:40:43.317Z,65.95
2023-02-04T09:43:18.577Z,65.79
2023-02-04T09:45:45.502Z,65.73
2023-02-04T09:48:14.599Z,65.59
2023-02-04T09:50:42.116Z,65.70
2023-02-04T09:53:17.450Z,65.36
2023-02-04T09:55:46.809Z,65.24
2023-02-04T09:58:22.596Z,64.85
2023-02-04T10:00:59.244Z,64.75
2023-02-04T10:03:26.220Z,64.78
2023-02-04T10:05:53.242Z,64.78
2023-02-04T10:08:28.583Z,64.35
2023-02-04T10:10:57.848Z,64.81
2023-02-04T10:13:37.534Z,64.38
2023-02-04T10:16:14.901Z,64.25
2023-02-04T10:18:42.183Z,63.99
2023-02-04T10:21:20.765Z,63.99
2023-02-04T10:23:51.045Z,63.70
2023-02-04T10:26:19.167Z,63.91
2023-02-04T10:28:46.010Z,63.79
2023-02-04T10:31:37.516Z,63.47
2023-02-04T10:34:10.690Z,63.80
2023-02-04T10:36:38.633Z,63.37
2023-02-04T10:39:18.332Z,63.45
2023-02-04T10:41:49.798Z,63.05
2023-02-04T10:44:25.115Z,62.63
2023-02-04T10:47:09.476Z,62.77
2023-02-04T10:49:36.621Z,62.66
2023-02-04T10:52:15.874Z,62.22
2023-02-04T10:54:43.589Z,62.29
2023-02-04T10:57:27.166Z,62.24
2023-02-04T10:59:58.092Z,62.26
2023-02-04T11:02:46.304Z,62.30
2023-02-04T11:05:22.454Z,62.31
2023-02-04T11:07:50.799Z,62.04
2023-02-04T11:10:21.688Z,61.35
2023-02-04T11:13:05.531Z,61.59
2023-02-04T11:15:51.131Z,61.62
2023-02-04T11:18:21.027Z,61.64
2023-02-04T11:20:56.343Z,61.57
2023-02-04T11:23:32.874Z,61.11
2023-02-04T11:26:21.680Z,60.86
2023-02-04T11:29:00.778Z,60.67
2023-02-04T11:31:41.993Z,60.71
2023-02-04T11:34:10.579Z,60.78
2023-02-04T11:37:04.321Z,60.49
2023-02-04T11:39:44.476Z,59.95
2023-02-04T11:42:30.330Z,60.18
2023-02-04T11:45:21.648Z,60.31
2023-02-04T11:47:50.399Z,60.37
2023-02-04T11:50:34.502Z,60.18
2023-02-04T11:53:02.525Z,60.00
2023-02-04T11:55:32.394Z,59.90
2023-02-04T11:57:59.316Z,59.73
2023-02-04T12:00:32.199Z,59.65
2023-02-04T12:03:04.522Z,59.79
2023-02-04T12:05:47.224Z,59.95
2023-02-04T12:08:24.881Z,59.61
2023-02-04T12:11:04.698Z,59.54
2023-02-04T12:13:32.374Z,59.52
2023-02-04T12:16:05.774Z,59.39
2023-02-04T12:18:34.523Z,59.70
2023-02-04T12:21:02.659Z,59.62
2023-02-04T12:23:30.520Z,59.74
2023-02-04T12:25:58.420Z,59.29
2023-02-04T12:28:27.862Z,59.67
2023-02-04T12:30:55.574Z,60.00
2023-02-04T12:33:22.830Z,59.83
2023-02-04T12:35:49.670Z,59.17
2023-02-04T12:38:16.437Z,59.33
2023-02-04T12:40:43.417Z,58.85
2023-02-04T12:43:10.190Z,58.52
2023-02-04T12:45:38.132Z,58.60
2023-02-04T12:48:04.956Z,58.38
2023-02-04T12:50:31.914Z,58.82
2023-02-04T12:52:59.756Z,58.86
2023-02-04T12:55:28.456Z,58.92
2023-02-04T12:57:56.252Z,58.74
2023-02-04T13:00:24.091Z,58.61
2023-02-04T13:02:51.500Z,58.47
2023-02-04T13:05:18.473Z,58.41
2023-02-04T13:07:46.184Z,58.43
2023-02-04T13:10:14.306Z,58.64
2023-02-04T13:12:41.398Z,58.66
2023-02-04T13:15:09.048Z,58.85
2023-02-04T13:17:36.057Z,58.79
2023-02-04T13:20:03.571Z,59.05
2023-02-04T13:22:30.329Z,58.72
2023-02-04T13:24:57.104Z,59.02
2023-02-04T13:27:23.886Z,58.77
2023-02-04T13:29:50.690Z,58.86
2023-02-04T13:32:17.464Z,58.69
2023-02-04T13:34:44.233Z,58.58
2023-02-04T13:37:11.002Z,59.01
2023-02-04T13:39:37.773Z,58.78
2023-02-04T13:42:04.672Z,58.63
2023-02-04T13:44:31.485Z,58.95
2023-02-04T13:46:58.253Z,58.81
2023-02-04T13:49:25.192Z,58.25
2023-02-04T13:51:51.952Z,58.64
2023-02-04T13:54:18.767Z,58.62
2023-02-04T13:56:45.544Z,58.32
2023-02-04T13:59:12.408Z,58.64
2023-02-04T14:01:39.264Z,58.56
2023-02-04T14:04:06.062Z,58.44
2023-02-04T14:06:38.128Z,58.30
2023-02-04T14:09:05.120Z,58.57
2023-02-04T14:11:31.907Z,57.61
2023-02-04T14:13:58.668Z,57.88
2023-02-04T14:16:25.510Z,58.33
2023-02-04T14:18:52.411Z,58.35
2023-02-04T14:21:19.424Z,58.04
2023-02-04T14:23:46.190Z,58.00
2023-02-04T14:26:12.970Z,57.88
2023-02-04T14:28:39.740Z,57.83
2023-02-04T14:31:06.551Z,57.43
2023-02-04T14:33:33.344Z,57.39
2023-02-04T14:36:00.513Z,57.32
2023-02-04T14:38:30.894Z,57.61
2023-02-04T14:40:58.685Z,57.60
2023-02-04T14:43:25.922Z,57.34
2023-02-04T14:45:52.987Z,57.29
2023-02-04T14:48:19.860Z,57.14
2023-02-04T14:50:46.623Z,57.29
2023-02-04T14:53:13.368Z,57.02
2023-02-04T14:55:40.146Z,56.99
2023-02-04T14:58:07.079Z,56.73
2023-02-04T15:00:34.324Z,56.73
2023-02-04T15:03:01.298Z,56.93
2023-02-04T15:05:28.047Z,56.83
2023-02-04T15:07:54.958Z,56.94
2023-02-04T15:10:22.816Z,56.67
2023-02-04T15:12:49.769Z,56.71
2023-02-04T15:15:16.598Z,56.69
2023-02-04T15:17:43.413Z,56.71
2023-02-04T15:20:11.141Z,56.77
2023-02-04T15:22:38.353Z,56.62
2023-02-04T15:25:05.873Z,57.01
2023-02-04T15:27:32.643Z,56.86
2023-02-04T15:29:59.406Z,56.78
2023-02-04T15:32:26.320Z,56.87
2023-02-04T15:34:53.141Z,56.89
2023-02-04T15:37:19.973Z,57.06
2023-02-04T15:39:46.758Z,57.09
2023-02-04T15:42:14.373Z,57.13
2023-02-04T15:44:41.250Z,57.23
2023-02-04T15:47:08.031Z,57.24
2023-02-04T15:49:35.087Z,57.16
2023-02-04T15:52:02.394Z,57.69
2023-02-04T15:54:29.568Z,57.74
2023-02-04T15:56:56.347Z,57.74
2023-02-04T15:59:23.692Z,57.70
2023-02-04T16:01:50.731Z,57.53
2023-02-04T16:04:19.842Z,57.71
2023-02-04T16:06:57.803Z,57.84
2023-02-04T16:09:25.814Z,58.02
2023-02-04T16:11:52.576Z,58.02
2023-02-04T16:14:19.366Z,58.17
2023-02-04T16:16:46.135Z,58.28
2023-02-04T16:19:12.929Z,58.38
2023-02-04T16:21:39.707Z,58.24
2023-02-04T16:24:06.852Z,58.21
2023-02-04T16:26:33.629Z,58.32
2023-02-04T16:29:00.454Z,58.39
2023-02-04T16:31:27.321Z,58.51
2023-02-04T16:33:54.164Z,58.27
2023-02-04T16:36:22.326Z,58.79
2023-02-04T16:38:49.205Z,58.76
2023-02-04T16:41:16.052Z,58.49
2023-02-04T16:43:42.814Z,58.78
2023-02-04T16:46:09.867Z,58.81
2023-02-04T16:48:36.673Z,58.91
2023-02-04T16:51:04.437Z,58.88
2023-02-04T16:53:31.254Z,58.49
2023-02-04T16:55:58.072Z,58.75
2023-02-04T16:58:26.083Z,58.80
2023-02-04T17:00:52.866Z,58.80
2023-02-04T17:03:19.669Z,58.97
2023-02-04T17:05:46.551Z,59.10
2023-02-04T17:08:15.041Z,59.10
2023-02-04T17:11:00.247Z,59.16
2023-02-04T17:13:27.114Z,59.20
2023-02-04T17:16:00.394Z,59.17
2023-02-04T17:18:29.661Z,59.29
2023-02-04T17:20:56.951Z,59.35
2023-02-04T17:23:23.823Z,59.33
2023-02-04T17:25:50.613Z,59.19
2023-02-04T17:28:17.552Z,59.36
2023-02-04T17:30:44.561Z,59.17
2023-02-04T17:33:11.352Z,59.29
2023-02-04T17:35:38.187Z,59.63
2023-02-04T17:38:04.993Z,59.34
2023-02-04T17:40:32.474Z,59.57
2023-02-04T17:42:59.287Z,59.63
2023-02-04T17:45:26.259Z,59.88
2023-02-04T17:47:53.016Z,59.55
2023-02-04T17:50:19.833Z,59.55
2023-02-04T17:52:47.002Z,59.60
2023-02-04T17:55:28.957Z,59.60
2023-02-04T17:58:02.273Z,59.61
2023-02-04T18:00:31.513Z,59.82
2023-02-04T18:02:58.883Z,59.93
2023-02-04T18:05:28.564Z,59.51
2023-02-04T18:08:22.380Z,59.73
2023-02-04T18:10:52.154Z,59.79
2023-02-04T18:13:25.528Z,59.57
2023-02-04T18:15:57.977Z,59.78
2023-02-04T18:18:39.919Z,59.82
2023-02-04T18:21:22.925Z,60.02
2023-02-04T18:24:17.416Z,59.89
2023-02-04T18:26:46.969Z,60.33
2023-02-04T18:29:34.842Z,60.53
2023-02-04T18:32:19.482Z,60.14
2023-02-04T18:34:53.594Z,60.17
2023-02-04T18:37:29.506Z,60.66
2023-02-04T18:40:17.981Z,60.38
2023-02-04T18:42:46.380Z,60.58
2023-02-04T18:45:29.319Z,60.54
2023-02-04T18:47:59.280Z,59.95
2023-02-04T18:50:33.407Z,60.63
2023-02-04T18:53:15.399Z,60.39
2023-02-04T18:55:51.614Z,60.26
2023-02-04T18:58:40.857Z,60.46
2023-02-04T19:01:10.552Z,60.26
2023-02-04T19:03:48.824Z,60.48
2023-02-04T19:06:39.430Z,60.28
2023-02-04T19:09:23.612Z,60.61
2023-02-04T19:11:59.300Z,60.87
2023-02-04T19:14:43.330Z,60.56
2023-02-04T19:17:29.900Z,60.73
2023-02-04T19:20:18.029Z,60.74
2023-02-04T19:22:56.237Z,60.89
2023-02-04T19:25:25.606Z,60.71
2023-02-04T19:27:59.605Z,61.09
2023-02-04T19:30:26.296Z,61.28
2023-02-04T19:32:56.922Z,60.83
2023-02-04T19:35:28.978Z,61.23
2023-02-04T19:38:22.621Z,61.05
2023-02-04T19:40:53.001Z,61.18
2023-02-04T19:43:27.093Z,61.22
2023-02-04T19:45:54.257Z,61.52
2023-02-04T19:48:34.732Z,61.37
2023-02-04T19:51:24.498Z,60.90
2023-02-04T19:53:59.000Z,61.45
2023-02-04T19:56:35.127Z,61.28
2023-02-04T19:59:25.305Z,61.46
2023-02-04T20:02:22.494Z,61.27
2023-02-04T20:04:54.075Z,61.32
2023-02-04T20:07:25.016Z,61.26
2023-02-04T20:10:23.204Z,61.42
2023-02-04T20:13:00.600Z,61.38
2023-02-04T20:15:27.375Z,61.85
2023-02-04T20:17:54.739Z,61.70
2023-02-04T20:20:30.765Z,62.10
2023-02-04T20:23:27.704Z,61.89
2023-02-04T20:25:55.963Z,61.56
2023-02-04T20:28:43.129Z,61.46
2023-02-04T20:31:25.251Z,61.60
2023-02-04T20:33:56.241Z,61.61
2023-02-04T20:36:35.715Z,62.11
2023-02-04T20:39:35.601Z,61.89
2023-02-04T20:42:27.667Z,62.00
2023-02-04T20:44:55.902Z,62.22
2023-02-04T20:47:25.460Z,62.02
2023-02-04T20:49:59.189Z,62.21
2023-02-04T20:52:41.150Z,62.01
2023-02-04T20:55:33.312Z,62.51
2023-02-04T20:58:15.054Z,61.88
2023-02-04T21:00:43.457Z,62.65
2023-02-04T21:03:13.144Z,61.94
2023-02-04T21:05:40.651Z,62.28
2023-02-04T21:08:44.665Z,62.02
2023-02-04T21:11:11.464Z,62.04
2023-02-04T21:13:38.786Z,62.12
2023-02-04T21:16:06.723Z,62.26
2023-02-04T21:18:34.569Z,61.81
2023-02-04T21:21:03.606Z,62.23
2023-02-04T21:23:30.481Z,62.12
2023-02-04T21:25:57.421Z,62.02
2023-02-04T21:28:24.328Z,62.04
2023-02-04T21:30:51.273Z,62.12
2023-02-04T21:33:18.151Z,62.11
2023-02-04T21:35:45.120Z,61.75
2023-02-04T21:38:11.998Z,62.32
2023-02-04T21:40:39.191Z,62.58
2023-02-04T21:43:08.060Z,62.36
2023-02-04T21:45:37.473Z,62.05
2023-02-04T21:48:05.365Z,62.26
2023-02-04T21:50:32.974Z,61.82
2023-02-04T21:52:59.800Z,62.17
2023-02-04T21:55:27.035Z,62.41
2023-02-04T21:57:53.819Z,62.39
2023-02-04T22:00:25.291Z,61.89
2023-02-04T22:02:52.986Z,62.04
2023-02-04T22:05:21.365Z,62.10
2023-02-04T22:07:48.631Z,62.62
2023-02-04T22:10:19.819Z,62.01
2023-02-04T22:12:46.744Z,62.04
2023-02-04T22:15:13.607Z,62.20
2023-02-04T22:17:40.375Z,62.19
2023-02-04T22:20:07.839Z,62.53
2023-02-04T22:22:34.663Z,61.75
2023-02-04T22:25:01.788Z,62.06
2023-02-04T22:27:28.721Z,62.47
2023-02-04T22:29:56.801Z,62.57
2023-02-04T22:32:24.124Z,62.45
2023-02-04T22:34:50.915Z,62.01
2023-02-04T22:37:17.684Z,62.34
2023-02-04T22:39:44.450Z,62.40
2023-02-04T22:42:11.209Z,62.29
2023-02-04T22:44:38.000Z,62.59
2023-02-04T22:47:04.886Z,62.53
2023-02-04T22:49:33.314Z,62.44
2023-02-04T22:52:00.138Z,62.50
2023-02-04T22:54:26.941Z,62.19
2023-02-04T22:56:53.880Z,62.13
2023-02-04T22:59:20.656Z,62.09
2023-02-04T23:01:47.484Z,62.42
2023-02-04T23:04:14.259Z,62.38
2023-02-04T23:06:41.232Z,61.73
2023-02-04T23:09:08.301Z,62.23
2023-02-04T23:11:35.397Z,62.76
2023-02-04T23:14:02.340Z,62.25
2023-02-04T23:16:29.162Z,62.12
2023-02-04T23:18:55.932Z,62.41
2023-02-04T23:21:22.925Z,62.20
2023-02-04T23:23:50.894Z,62.42
2023-02-04T23:26:17.902Z,62.63
2023-02-04T23:28:44.780Z,62.67
2023-02-04T23:31:11.667Z,62.41
2023-02-04T23:33:38.435Z,62.74
2023-02-04T23:36:05.547Z,62.68
2023-02-04T23:38:32.329Z,62.61
2023-02-04T23:41:00.141Z,62.79
2023-02-04T23:43:28.123Z,63.12
2023-02-04T23:45:57.094Z,62.54
2023-02-04T23:48:24.727Z,62.78
2023-02-04T23:50:51.732Z,62.55
2023-02-04T23:53:19.347Z,62.35
2023-02-04T23:55:46.451Z,63.12
2023-02-04T23:58:13.315Z,62.77
